sensor_id;sensor_type;location;lat;lon;timestamp;temperature;humidity
79467;SHT30;68933;49.726;9.226;2023-06-14T00:01:11;17.2;50
79467;SHT30;68933;49.726;9.226;2023-06-14T00:03:24;17;50
79467;SHT30;68933;49.726;9.226;2023-06-14T00:05:37;17;50
79467;SHT30;68933;49.726;9.226;2023-06-14T00:07:50;16.9;50
79467;SHT30;68933;49.726;9.226;2023-06-14T00:10:03;16.9;50
79467;SHT30;68933;49.726;9.226;2023-06-14T00:12:16;16.9;50
79467;SHT30;68933;49.726;9.226;2023-06-14T00:14:29;16.9;50
79467;SHT30;68933;49.726;9.226;2023-06-14T00:16:42;16.9;50
79467;SHT30;68933;49.726;9.226;2023-06-14T00:18:55;16.7;52
79467;SHT30;68933;49.726;9.226;2023-06-14T00:21:08;16.7;52
79467;SHT30;68933;49.726;9.226;2023-06-14T00:23:21;16.5;53
79467;SHT30;68933;49.726;9.226;2023-06-14T00:25:34;16.5;53
79467;SHT30;68933;49.726;9.226;2023-06-14T00:27:47;16.4;53
79467;SHT30;68933;49.726;9.226;2023-06-14T00:30:00;16.4;53
79467;SHT30;68933;49.726;9.226;2023-06-14T00:32:13;16.4;53
79467;SHT30;68933;49.726;9.226;2023-06-14T00:34:26;16.3;53
79467;SHT30;68933;49.726;9.226;2023-06-14T00:36:39;16.3;53
79467;SHT30;68933;49.726;9.226;2023-06-14T00:38:52;16.2;53
79467;SHT30;68933;49.726;9.226;2023-06-14T00:41:05;16.2;53
79467;SHT30;68933;49.726;9.226;2023-06-14T00:43:18;16.1;53
79467;SHT30;68933;49.726;9.226;2023-06-14T00:45:31;16.1;53
79467;SHT30;68933;49.726;9.226;2023-06-14T00:47:44;16.1;53
79467;SHT30;68933;49.726;9.226;2023-06-14T00:49:57;16.1;53
79467;SHT30;68933;49.726;9.226;2023-06-14T00:52:10;16.1;53
79467;SHT30;68933;49.726;9.226;2023-06-14T00:54:23;16.1;53
79467;SHT30;68933;49.726;9.226;2023-06-14T00:56:36;16.1;53
79467;SHT30;68933;49.726;9.226;2023-06-14T00:58:49;16.1;53
79467;SHT30;68933;49.726;9.226;2023-06-14T01:01:02;16.1;53
79467;SHT30;68933;49.726;9.226;2023-06-14T01:03:15;16.1;53
79467;SHT30;68933;49.726;9.226;2023-06-14T01:05:28;16;53
79467;SHT30;68933;49.726;9.226;2023-06-14T01:07:43;16;53
79467;SHT30;68933;49.726;9.226;2023-06-14T01:09:58;15.9;53
79467;SHT30;68933;49.726;9.226;2023-06-14T01:12:07;15.9;53
79467;SHT30;68933;49.726;9.226;2023-06-14T01:14:20;15.9;53
79467;SHT30;68933;49.726;9.226;2023-06-14T01:16:33;15.9;53
79467;SHT30;68933;49.726;9.226;2023-06-14T01:18:46;15.9;53
79467;SHT30;68933;49.726;9.226;2023-06-14T01:20:59;15.8;53
79467;SHT30;68933;49.726;9.226;2023-06-14T01:23:12;15.8;53
79467;SHT30;68933;49.726;9.226;2023-06-14T01:25:25;15.7;53
79467;SHT30;68933;49.726;9.226;2023-06-14T01:27:38;15.7;53
79467;SHT30;68933;49.726;9.226;2023-06-14T01:29:51;15.7;54
79467;SHT30;68933;49.726;9.226;2023-06-14T01:32:04;15.7;54
79467;SHT30;68933;49.726;9.226;2023-06-14T01:34:17;15.5;54
79467;SHT30;68933;49.726;9.226;2023-06-14T01:36:30;15.5;54
79467;SHT30;68933;49.726;9.226;2023-06-14T01:38:43;15.4;54
79467;SHT30;68933;49.726;9.226;2023-06-14T01:40:56;15.4;54
79467;SHT30;68933;49.726;9.226;2023-06-14T01:43:09;15.4;54
79467;SHT30;68933;49.726;9.226;2023-06-14T01:45:22;15.3;54
79467;SHT30;68933;49.726;9.226;2023-06-14T01:47:35;15.3;54
79467;SHT30;68933;49.726;9.226;2023-06-14T01:49:48;15.2;56
79467;SHT30;68933;49.726;9.226;2023-06-14T01:52:01;15.2;56
79467;SHT30;68933;49.726;9.226;2023-06-14T01:54:14;15.2;56
79467;SHT30;68933;49.726;9.226;2023-06-14T01:56:27;15.2;56
79467;SHT30;68933;49.726;9.226;2023-06-14T01:58:40;15.2;56
79467;SHT30;68933;49.726;9.226;2023-06-14T02:00:53;15.2;56
79467;SHT30;68933;49.726;9.226;2023-06-14T02:03:06;15.2;56
79467;SHT30;68933;49.726;9.226;2023-06-14T02:05:19;15.2;56
79467;SHT30;68933;49.726;9.226;2023-06-14T02:07:32;15.2;56
79467;SHT30;68933;49.726;9.226;2023-06-14T02:09:45;15.2;56
79467;SHT30;68933;49.726;9.226;2023-06-14T02:11:58;15.2;56
79467;SHT30;68933;49.726;9.226;2023-06-14T02:14:11;15.1;54
79467;SHT30;68933;49.726;9.226;2023-06-14T02:16:24;15.1;54
79467;SHT30;68933;49.726;9.226;2023-06-14T02:18:37;15.1;54
79467;SHT30;68933;49.726;9.226;2023-06-14T02:20:50;15.1;54
79467;SHT30;68933;49.726;9.226;2023-06-14T02:23:03;15.1;54
79467;SHT30;68933;49.726;9.226;2023-06-14T02:25:16;15.1;54
79467;SHT30;68933;49.726;9.226;2023-06-14T02:27:29;15.1;54
79467;SHT30;68933;49.726;9.226;2023-06-14T02:29:42;15.1;54
79467;SHT30;68933;49.726;9.226;2023-06-14T02:31:55;15.1;54
79467;SHT30;68933;49.726;9.226;2023-06-14T02:34:08;14.9;56
79467;SHT30;68933;49.726;9.226;2023-06-14T02:36:21;14.9;56
79467;SHT30;68933;49.726;9.226;2023-06-14T02:38:34;14.9;56
79467;SHT30;68933;49.726;9.226;2023-06-14T02:40:47;14.9;56
79467;SHT30;68933;49.726;9.226;2023-06-14T02:43:00;14.9;56
79467;SHT30;68933;49.726;9.226;2023-06-14T02:45:13;14.9;56
79467;SHT30;68933;49.726;9.226;2023-06-14T02:47:26;14.8;56
79467;SHT30;68933;49.726;9.226;2023-06-14T02:49:39;14.8;56
79467;SHT30;68933;49.726;9.226;2023-06-14T02:51:52;14.8;56
79467;SHT30;68933;49.726;9.226;2023-06-14T02:54:05;14.8;56
79467;SHT30;68933;49.726;9.226;2023-06-14T02:56:18;14.8;56
79467;SHT30;68933;49.726;9.226;2023-06-14T02:58:31;14.8;57
79467;SHT30;68933;49.726;9.226;2023-06-14T03:00:44;14.8;57
79467;SHT30;68933;49.726;9.226;2023-06-14T03:02:57;14.8;57
79467;SHT30;68933;49.726;9.226;2023-06-14T03:05:10;14.6;57
79467;SHT30;68933;49.726;9.226;2023-06-14T03:07:23;14.6;57
79467;SHT30;68933;49.726;9.226;2023-06-14T03:09:36;14.5;57
79467;SHT30;68933;49.726;9.226;2023-06-14T03:11:49;14.5;57
79467;SHT30;68933;49.726;9.226;2023-06-14T03:14:02;14.5;57
79467;SHT30;68933;49.726;9.226;2023-06-14T03:16:15;14.5;57
79467;SHT30;68933;49.726;9.226;2023-06-14T03:18:28;14.5;57
79467;SHT30;68933;49.726;9.226;2023-06-14T03:20:41;14.4;57
79467;SHT30;68933;49.726;9.226;2023-06-14T03:22:54;14.4;57
79467;SHT30;68933;49.726;9.226;2023-06-14T03:25:07;14.3;57
79467;SHT30;68933;49.726;9.226;2023-06-14T03:27:20;14.3;57
79467;SHT30;68933;49.726;9.226;2023-06-14T03:29:33;14.3;57
79467;SHT30;68933;49.726;9.226;2023-06-14T03:31:56;14.3;58
79467;SHT30;68933;49.726;9.226;2023-06-14T03:33:59;14.3;58
79467;SHT30;68933;49.726;9.226;2023-06-14T03:36:12;14.2;59
79467;SHT30;68933;49.726;9.226;2023-06-14T03:38:25;14.2;59
79467;SHT30;68933;49.726;9.226;2023-06-14T03:40:38;14.2;59
79467;SHT30;68933;49.726;9.226;2023-06-14T03:42:51;14.2;59
79467;SHT30;68933;49.726;9.226;2023-06-14T03:45:04;14.2;59
79467;SHT30;68933;49.726;9.226;2023-06-14T03:47:17;14.1;59
79467;SHT30;68933;49.726;9.226;2023-06-14T03:49:30;14.1;59
79467;SHT30;68933;49.726;9.226;2023-06-14T03:51:43;14.1;59
79467;SHT30;68933;49.726;9.226;2023-06-14T03:53:56;14.1;59
79467;SHT30;68933;49.726;9.226;2023-06-14T03:56:09;14.1;59
79467;SHT30;68933;49.726;9.226;2023-06-14T03:58:22;14.1;59
79467;SHT30;68933;49.726;9.226;2023-06-14T04:00:35;14.1;59
79467;SHT30;68933;49.726;9.226;2023-06-14T04:02:48;14.1;59
79467;SHT30;68933;49.726;9.226;2023-06-14T04:05:01;14.1;59
79467;SHT30;68933;49.726;9.226;2023-06-14T04:07:14;14;59
79467;SHT30;68933;49.726;9.226;2023-06-14T04:09:27;14;59
79467;SHT30;68933;49.726;9.226;2023-06-14T04:11:40;14;59
79467;SHT30;68933;49.726;9.226;2023-06-14T04:13:53;13.9;59
79467;SHT30;68933;49.726;9.226;2023-06-14T04:16:06;13.9;59
79467;SHT30;68933;49.726;9.226;2023-06-14T04:18:19;13.9;59
79467;SHT30;68933;49.726;9.226;2023-06-14T04:20:32;13.9;59
79467;SHT30;68933;49.726;9.226;2023-06-14T04:22:45;14;59
79467;SHT30;68933;49.726;9.226;2023-06-14T04:24:58;14;59
79467;SHT30;68933;49.726;9.226;2023-06-14T04:27:11;14.1;59
79467;SHT30;68933;49.726;9.226;2023-06-14T04:29:24;14.1;59
79467;SHT30;68933;49.726;9.226;2023-06-14T04:31:37;14.1;59
79467;SHT30;68933;49.726;9.226;2023-06-14T04:33:50;14;59
79467;SHT30;68933;49.726;9.226;2023-06-14T04:36:03;14;59
79467;SHT30;68933;49.726;9.226;2023-06-14T04:38:16;14;59
79467;SHT30;68933;49.726;9.226;2023-06-14T04:40:29;14;59
79467;SHT30;68933;49.726;9.226;2023-06-14T04:42:42;14.1;60
79467;SHT30;68933;49.726;9.226;2023-06-14T04:44:55;14.1;60
79467;SHT30;68933;49.726;9.226;2023-06-14T04:47:08;14.1;60
79467;SHT30;68933;49.726;9.226;2023-06-14T04:49:21;14.1;60
79467;SHT30;68933;49.726;9.226;2023-06-14T04:51:34;14.1;60
79467;SHT30;68933;49.726;9.226;2023-06-14T04:53:47;14.1;60
79467;SHT30;68933;49.726;9.226;2023-06-14T04:56:00;14.1;60
79467;SHT30;68933;49.726;9.226;2023-06-14T04:58:13;14.2;60
79467;SHT30;68933;49.726;9.226;2023-06-14T05:00:26;14.2;60
79467;SHT30;68933;49.726;9.226;2023-06-14T05:02:39;14.2;60
79467;SHT30;68933;49.726;9.226;2023-06-14T05:04:52;14.2;60
79467;SHT30;68933;49.726;9.226;2023-06-14T05:07:06;14.2;60
79467;SHT30;68933;49.726;9.226;2023-06-14T05:09:18;14.2;60
79467;SHT30;68933;49.726;9.226;2023-06-14T05:11:31;14.2;60
79467;SHT30;68933;49.726;9.226;2023-06-14T05:13:44;14.2;60
79467;SHT30;68933;49.726;9.226;2023-06-14T05:15:57;14.2;60
79467;SHT30;68933;49.726;9.226;2023-06-14T05:18:10;14.3;60
79467;SHT30;68933;49.726;9.226;2023-06-14T05:20:23;14.3;60
79467;SHT30;68933;49.726;9.226;2023-06-14T05:22:36;14.3;58
79467;SHT30;68933;49.726;9.226;2023-06-14T05:24:49;14.3;58
79467;SHT30;68933;49.726;9.226;2023-06-14T05:27:02;14.4;58
79467;SHT30;68933;49.726;9.226;2023-06-14T05:29:15;14.4;58
79467;SHT30;68933;49.726;9.226;2023-06-14T05:31:28;14.6;58
79467;SHT30;68933;49.726;9.226;2023-06-14T05:33:41;14.6;58
79467;SHT30;68933;49.726;9.226;2023-06-14T05:35:54;14.7;58
79467;SHT30;68933;49.726;9.226;2023-06-14T05:38:07;14.7;58
79467;SHT30;68933;49.726;9.226;2023-06-14T05:40:20;14.7;58
79467;SHT30;68933;49.726;9.226;2023-06-14T05:42:33;14.9;58
79467;SHT30;68933;49.726;9.226;2023-06-14T05:44:46;14.9;58
79467;SHT30;68933;49.726;9.226;2023-06-14T05:46:59;15.2;58
79467;SHT30;68933;49.726;9.226;2023-06-14T05:49:12;15.2;58
79467;SHT30;68933;49.726;9.226;2023-06-14T05:51:25;15.2;58
79467;SHT30;68933;49.726;9.226;2023-06-14T05:53:38;15.3;58
79467;SHT30;68933;49.726;9.226;2023-06-14T05:55:51;15.3;58
79467;SHT30;68933;49.726;9.226;2023-06-14T05:58:04;15.5;58
79467;SHT30;68933;49.726;9.226;2023-06-14T06:00:17;15.5;58
79467;SHT30;68933;49.726;9.226;2023-06-14T06:02:30;15.5;58
79467;SHT30;68933;49.726;9.226;2023-06-14T06:04:43;15.8;57
79467;SHT30;68933;49.726;9.226;2023-06-14T06:06:56;15.8;57
79467;SHT30;68933;49.726;9.226;2023-06-14T06:09:09;16.1;56
79467;SHT30;68933;49.726;9.226;2023-06-14T06:11:22;16.1;56
79467;SHT30;68933;49.726;9.226;2023-06-14T06:13:35;16.5;54
79467;SHT30;68933;49.726;9.226;2023-06-14T06:15:48;16.5;54
79467;SHT30;68933;49.726;9.226;2023-06-14T06:18:01;16.5;54
79467;SHT30;68933;49.726;9.226;2023-06-14T06:20:14;16.9;53
79467;SHT30;68933;49.726;9.226;2023-06-14T06:22:27;16.9;53
79467;SHT30;68933;49.726;9.226;2023-06-14T06:24:40;17.1;53
79467;SHT30;68933;49.726;9.226;2023-06-14T06:26:53;17.1;53
79467;SHT30;68933;49.726;9.226;2023-06-14T06:29:06;17.1;53
79467;SHT30;68933;49.726;9.226;2023-06-14T06:31:19;17.4;52
79467;SHT30;68933;49.726;9.226;2023-06-14T06:33:32;17.4;52
79467;SHT30;68933;49.726;9.226;2023-06-14T06:35:45;17.8;50
79467;SHT30;68933;49.726;9.226;2023-06-14T06:37:58;17.8;50
79467;SHT30;68933;49.726;9.226;2023-06-14T06:40:11;17.9;50
79467;SHT30;68933;49.726;9.226;2023-06-14T06:42:24;17.9;50
79467;SHT30;68933;49.726;9.226;2023-06-14T06:44:37;17.9;50
79467;SHT30;68933;49.726;9.226;2023-06-14T06:46:50;18.2;49
79467;SHT30;68933;49.726;9.226;2023-06-14T06:49:03;18.2;49
79467;SHT30;68933;49.726;9.226;2023-06-14T06:51:16;18.5;49
79467;SHT30;68933;49.726;9.226;2023-06-14T06:53:29;18.5;49
79467;SHT30;68933;49.726;9.226;2023-06-14T06:55:42;18.7;48
79467;SHT30;68933;49.726;9.226;2023-06-14T06:57:55;18.7;48
79467;SHT30;68933;49.726;9.226;2023-06-14T07:00:08;18.7;48
79467;SHT30;68933;49.726;9.226;2023-06-14T07:02:21;18.9;48
79467;SHT30;68933;49.726;9.226;2023-06-14T07:04:34;18.9;48
79467;SHT30;68933;49.726;9.226;2023-06-14T07:06:47;19.1;48
79467;SHT30;68933;49.726;9.226;2023-06-14T07:09:00;19.1;48
79467;SHT30;68933;49.726;9.226;2023-06-14T07:11:13;19.4;48
79467;SHT30;68933;49.726;9.226;2023-06-14T07:13:26;19.4;48
79467;SHT30;68933;49.726;9.226;2023-06-14T07:15:39;19.4;48
79467;SHT30;68933;49.726;9.226;2023-06-14T07:17:52;19.5;46
79467;SHT30;68933;49.726;9.226;2023-06-14T07:20:05;19.5;46
79467;SHT30;68933;49.726;9.226;2023-06-14T07:22:18;19.8;46
79467;SHT30;68933;49.726;9.226;2023-06-14T07:24:31;19.8;46
79467;SHT30;68933;49.726;9.226;2023-06-14T07:26:44;20.1;46
79467;SHT30;68933;49.726;9.226;2023-06-14T07:28:57;20.1;46
79467;SHT30;68933;49.726;9.226;2023-06-14T07:31:10;20.2;46
79467;SHT30;68933;49.726;9.226;2023-06-14T07:33:23;20.2;46
79467;SHT30;68933;49.726;9.226;2023-06-14T07:35:36;20.2;46
79467;SHT30;68933;49.726;9.226;2023-06-14T07:37:49;20.4;45
79467;SHT30;68933;49.726;9.226;2023-06-14T07:40:02;20.4;45
79467;SHT30;68933;49.726;9.226;2023-06-14T07:42:15;20.7;45
79467;SHT30;68933;49.726;9.226;2023-06-14T07:44:29;20.7;45
79467;SHT30;68933;49.726;9.226;2023-06-14T07:46:41;20.9;45
79467;SHT30;68933;49.726;9.226;2023-06-14T07:48:54;20.9;45
79467;SHT30;68933;49.726;9.226;2023-06-14T07:51:07;20.9;45
79467;SHT30;68933;49.726;9.226;2023-06-14T07:53:20;21.1;43
79467;SHT30;68933;49.726;9.226;2023-06-14T07:55:33;21.1;43
79467;SHT30;68933;49.726;9.226;2023-06-14T07:57:46;21.4;43
79467;SHT30;68933;49.726;9.226;2023-06-14T07:59:59;21.4;43
79467;SHT30;68933;49.726;9.226;2023-06-14T08:02:12;21.5;43
79467;SHT30;68933;49.726;9.226;2023-06-14T08:04:25;21.5;43
79467;SHT30;68933;49.726;9.226;2023-06-14T08:06:38;21.7;42
79467;SHT30;68933;49.726;9.226;2023-06-14T08:08:51;21.7;42
79467;SHT30;68933;49.726;9.226;2023-06-14T08:11:04;21.7;42
79467;SHT30;68933;49.726;9.226;2023-06-14T08:13:17;22;42
79467;SHT30;68933;49.726;9.226;2023-06-14T08:15:30;22;42
79467;SHT30;68933;49.726;9.226;2023-06-14T08:17:43;22.1;42
79467;SHT30;68933;49.726;9.226;2023-06-14T08:19:56;22.1;42
79467;SHT30;68933;49.726;9.226;2023-06-14T08:22:09;22.3;42
79467;SHT30;68933;49.726;9.226;2023-06-14T08:24:22;22.3;42
79467;SHT30;68933;49.726;9.226;2023-06-14T08:26:35;22.5;41
79467;SHT30;68933;49.726;9.226;2023-06-14T08:28:48;22.5;41
79467;SHT30;68933;49.726;9.226;2023-06-14T08:31:01;22.7;39
79467;SHT30;68933;49.726;9.226;2023-06-14T08:33:14;22.7;39
79467;SHT30;68933;49.726;9.226;2023-06-14T08:35:27;22.7;39
79467;SHT30;68933;49.726;9.226;2023-06-14T08:37:40;23;39
79467;SHT30;68933;49.726;9.226;2023-06-14T08:39:53;23;39
79467;SHT30;68933;49.726;9.226;2023-06-14T08:42:06;23.1;39
79467;SHT30;68933;49.726;9.226;2023-06-14T08:44:19;23.1;39
79467;SHT30;68933;49.726;9.226;2023-06-14T08:46:32;23.3;39
79467;SHT30;68933;49.726;9.226;2023-06-14T08:48:45;23.3;39
79467;SHT30;68933;49.726;9.226;2023-06-14T08:50:58;23.4;38
79467;SHT30;68933;49.726;9.226;2023-06-14T08:53:11;23.4;38
79467;SHT30;68933;49.726;9.226;2023-06-14T08:55:24;23.4;38
79467;SHT30;68933;49.726;9.226;2023-06-14T08:57:37;23.6;38
79467;SHT30;68933;49.726;9.226;2023-06-14T08:59:50;23.6;38
79467;SHT30;68933;49.726;9.226;2023-06-14T09:02:03;24;38
79467;SHT30;68933;49.726;9.226;2023-06-14T09:04:16;24;38
79467;SHT30;68933;49.726;9.226;2023-06-14T09:06:29;24.3;37
79467;SHT30;68933;49.726;9.226;2023-06-14T09:08:42;24.3;37
79467;SHT30;68933;49.726;9.226;2023-06-14T09:10:55;24.3;37
79467;SHT30;68933;49.726;9.226;2023-06-14T09:13:08;24.4;37
79467;SHT30;68933;49.726;9.226;2023-06-14T09:15:21;24.4;37
79467;SHT30;68933;49.726;9.226;2023-06-14T09:17:34;24.4;37
79467;SHT30;68933;49.726;9.226;2023-06-14T09:19:47;24.5;37
79467;SHT30;68933;49.726;9.226;2023-06-14T09:22:00;24.5;37
79467;SHT30;68933;49.726;9.226;2023-06-14T09:24:13;24.7;35
79467;SHT30;68933;49.726;9.226;2023-06-14T09:26:26;24.7;35
79467;SHT30;68933;49.726;9.226;2023-06-14T09:28:41;24.8;35
79467;SHT30;68933;49.726;9.226;2023-06-14T09:30:52;24.8;35
79467;SHT30;68933;49.726;9.226;2023-06-14T09:33:05;24.8;35
79467;SHT30;68933;49.726;9.226;2023-06-14T09:35:18;25;35
79467;SHT30;68933;49.726;9.226;2023-06-14T09:37:31;25;35
79467;SHT30;68933;49.726;9.226;2023-06-14T09:39:51;25.3;35
79467;SHT30;68933;49.726;9.226;2023-06-14T09:41:57;25.3;35
79467;SHT30;68933;49.726;9.226;2023-06-14T09:44:10;25.3;35
79467;SHT30;68933;49.726;9.226;2023-06-14T09:46:23;25.4;34
79467;SHT30;68933;49.726;9.226;2023-06-14T09:48:36;25.4;34
79467;SHT30;68933;49.726;9.226;2023-06-14T09:50:50;25.5;34
79467;SHT30;68933;49.726;9.226;2023-06-14T09:53:03;25.5;34
79467;SHT30;68933;49.726;9.226;2023-06-14T09:55:15;25.6;34
79467;SHT30;68933;49.726;9.226;2023-06-14T09:57:28;25.6;34
79467;SHT30;68933;49.726;9.226;2023-06-14T09:59:41;25.6;34
79467;SHT30;68933;49.726;9.226;2023-06-14T10:01:54;25.9;34
79467;SHT30;68933;49.726;9.226;2023-06-14T10:04:07;25.9;34
79467;SHT30;68933;49.726;9.226;2023-06-14T10:06:20;25.9;33
79467;SHT30;68933;49.726;9.226;2023-06-14T10:08:33;25.9;33
79467;SHT30;68933;49.726;9.226;2023-06-14T10:10:46;25.9;33
79467;SHT30;68933;49.726;9.226;2023-06-14T10:12:59;25.6;33
79467;SHT30;68933;49.726;9.226;2023-06-14T10:15:13;25.6;33
79467;SHT30;68933;49.726;9.226;2023-06-14T10:17:26;25.4;33
79467;SHT30;68933;49.726;9.226;2023-06-14T10:19:40;25.4;33
79467;SHT30;68933;49.726;9.226;2023-06-14T10:21:51;25.4;33
79467;SHT30;68933;49.726;9.226;2023-06-14T10:24:05;25.4;33
79467;SHT30;68933;49.726;9.226;2023-06-14T10:26:17;25.4;33
79467;SHT30;68933;49.726;9.226;2023-06-14T10:28:30;25.6;33
79467;SHT30;68933;49.726;9.226;2023-06-14T10:31:01;25.6;33
79467;SHT30;68933;49.726;9.226;2023-06-14T10:33:03;26;32
79467;SHT30;68933;49.726;9.226;2023-06-14T10:35:09;26;32
79467;SHT30;68933;49.726;9.226;2023-06-14T10:37:22;26;32
79467;SHT30;68933;49.726;9.226;2023-06-14T10:39:38;26;32
79467;SHT30;68933;49.726;9.226;2023-06-14T10:41:51;25.8;33
79467;SHT30;68933;49.726;9.226;2023-06-14T10:44:33;25.8;33
79467;SHT30;68933;49.726;9.226;2023-06-14T10:46:14;25.8;33
79467;SHT30;68933;49.726;9.226;2023-06-14T10:48:30;26.4;32
79467;SHT30;68933;49.726;9.226;2023-06-14T10:50:41;26.4;32
79467;SHT30;68933;49.726;9.226;2023-06-14T10:52:53;26.8;31
79467;SHT30;68933;49.726;9.226;2023-06-14T10:55:06;26.8;31
79467;SHT30;68933;49.726;9.226;2023-06-14T10:57:19;27.1;30
79467;SHT30;68933;49.726;9.226;2023-06-14T10:59:32;27.1;30
79467;SHT30;68933;49.726;9.226;2023-06-14T11:01:48;27.5;29
79467;SHT30;68933;49.726;9.226;2023-06-14T11:04:00;27.5;29
79467;SHT30;68933;49.726;9.226;2023-06-14T11:06:12;27.5;29
79467;SHT30;68933;49.726;9.226;2023-06-14T11:08:27;27.6;29
79467;SHT30;68933;49.726;9.226;2023-06-14T11:10:37;27.6;29
79467;SHT30;68933;49.726;9.226;2023-06-14T11:12:50;27.8;29
79467;SHT30;68933;49.726;9.226;2023-06-14T11:15:03;27.8;29
79467;SHT30;68933;49.726;9.226;2023-06-14T11:17:16;28.1;29
79467;SHT30;68933;49.726;9.226;2023-06-14T11:19:29;28.1;29
79467;SHT30;68933;49.726;9.226;2023-06-14T11:21:42;28.1;29
79467;SHT30;68933;49.726;9.226;2023-06-14T11:23:55;28.1;28
79467;SHT30;68933;49.726;9.226;2023-06-14T11:26:08;28.1;28
79467;SHT30;68933;49.726;9.226;2023-06-14T11:28:21;28.1;29
79467;SHT30;68933;49.726;9.226;2023-06-14T11:30:34;28.1;29
79467;SHT30;68933;49.726;9.226;2023-06-14T11:32:47;28;29
79467;SHT30;68933;49.726;9.226;2023-06-14T11:35:00;28;29
79467;SHT30;68933;49.726;9.226;2023-06-14T11:37:13;27.7;29
79467;SHT30;68933;49.726;9.226;2023-06-14T11:39:26;27.7;29
79467;SHT30;68933;49.726;9.226;2023-06-14T11:41:40;27.8;28
79467;SHT30;68933;49.726;9.226;2023-06-14T11:43:52;27.8;28
79467;SHT30;68933;49.726;9.226;2023-06-14T11:46:06;27.7;29
79467;SHT30;68933;49.726;9.226;2023-06-14T11:48:18;27.7;29
79467;SHT30;68933;49.726;9.226;2023-06-14T11:50:31;27.7;29
79467;SHT30;68933;49.726;9.226;2023-06-14T11:52:44;27.6;29
79467;SHT30;68933;49.726;9.226;2023-06-14T11:54:57;27.6;29
79467;SHT30;68933;49.726;9.226;2023-06-14T11:57:10;27.5;29
79467;SHT30;68933;49.726;9.226;2023-06-14T11:59:23;27.5;29
79467;SHT30;68933;49.726;9.226;2023-06-14T12:01:36;27.6;29
79467;SHT30;68933;49.726;9.226;2023-06-14T12:03:49;27.6;29
79467;SHT30;68933;49.726;9.226;2023-06-14T12:06:02;28;28
79467;SHT30;68933;49.726;9.226;2023-06-14T12:08:15;28;28
79467;SHT30;68933;49.726;9.226;2023-06-14T12:10:28;28;28
79467;SHT30;68933;49.726;9.226;2023-06-14T12:12:41;27.9;28
79467;SHT30;68933;49.726;9.226;2023-06-14T12:14:54;27.9;28
79467;SHT30;68933;49.726;9.226;2023-06-14T12:17:07;28;29
79467;SHT30;68933;49.726;9.226;2023-06-14T12:19:20;28;29
79467;SHT30;68933;49.726;9.226;2023-06-14T12:21:33;28;29
79467;SHT30;68933;49.726;9.226;2023-06-14T12:23:46;28.6;28
79467;SHT30;68933;49.726;9.226;2023-06-14T12:25:59;28.6;28
79467;SHT30;68933;49.726;9.226;2023-06-14T12:28:12;28.4;28
79467;SHT30;68933;49.726;9.226;2023-06-14T12:30:25;28.4;28
79467;SHT30;68933;49.726;9.226;2023-06-14T12:32:38;28.4;28
79467;SHT30;68933;49.726;9.226;2023-06-14T12:34:51;28.1;28
79467;SHT30;68933;49.726;9.226;2023-06-14T12:37:04;28.1;28
79467;SHT30;68933;49.726;9.226;2023-06-14T12:39:17;28.1;28
79467;SHT30;68933;49.726;9.226;2023-06-14T12:41:30;28.1;28
79467;SHT30;68933;49.726;9.226;2023-06-14T12:43:43;28.3;29
79467;SHT30;68933;49.726;9.226;2023-06-14T12:45:56;28.3;29
79467;SHT30;68933;49.726;9.226;2023-06-14T12:48:09;28.3;29
79467;SHT30;68933;49.726;9.226;2023-06-14T12:50:22;28.4;28
79467;SHT30;68933;49.726;9.226;2023-06-14T12:52:35;28.4;28
79467;SHT30;68933;49.726;9.226;2023-06-14T12:54:48;28.3;28
79467;SHT30;68933;49.726;9.226;2023-06-14T12:57:01;28.3;28
79467;SHT30;68933;49.726;9.226;2023-06-14T12:59:14;28.2;28
79467;SHT30;68933;49.726;9.226;2023-06-14T13:01:27;28.2;28
79467;SHT30;68933;49.726;9.226;2023-06-14T13:03:40;28.2;28
79467;SHT30;68933;49.726;9.226;2023-06-14T13:05:53;28.3;28
79467;SHT30;68933;49.726;9.226;2023-06-14T13:08:06;28.3;28
79467;SHT30;68933;49.726;9.226;2023-06-14T13:10:19;28.8;26
79467;SHT30;68933;49.726;9.226;2023-06-14T13:12:32;28.8;26
79467;SHT30;68933;49.726;9.226;2023-06-14T13:14:45;28.8;26
79467;SHT30;68933;49.726;9.226;2023-06-14T13:16:58;29;26
79467;SHT30;68933;49.726;9.226;2023-06-14T13:19:11;29;26
79467;SHT30;68933;49.726;9.226;2023-06-14T13:21:24;29.5;26
79467;SHT30;68933;49.726;9.226;2023-06-14T13:23:37;29.5;26
79467;SHT30;68933;49.726;9.226;2023-06-14T13:25:50;29.9;26
79467;SHT30;68933;49.726;9.226;2023-06-14T13:28:03;29.9;26
79467;SHT30;68933;49.726;9.226;2023-06-14T13:30:16;29.9;26
79467;SHT30;68933;49.726;9.226;2023-06-14T13:32:29;29.9;25
79467;SHT30;68933;49.726;9.226;2023-06-14T13:34:42;29.9;25
79467;SHT30;68933;49.726;9.226;2023-06-14T13:36:55;29.6;25
79467;SHT30;68933;49.726;9.226;2023-06-14T13:39:08;29.6;25
79467;SHT30;68933;49.726;9.226;2023-06-14T13:41:21;29.1;26
79467;SHT30;68933;49.726;9.226;2023-06-14T13:43:34;29.1;26
79467;SHT30;68933;49.726;9.226;2023-06-14T13:45:47;28.7;26
79467;SHT30;68933;49.726;9.226;2023-06-14T13:48:00;28.7;26
79467;SHT30;68933;49.726;9.226;2023-06-14T13:50:13;28.7;26
79467;SHT30;68933;49.726;9.226;2023-06-14T13:52:26;28.7;26
79467;SHT30;68933;49.726;9.226;2023-06-14T13:54:39;28.7;26
79467;SHT30;68933;49.726;9.226;2023-06-14T13:56:52;29.3;26
79467;SHT30;68933;49.726;9.226;2023-06-14T13:59:05;29.3;26
79467;SHT30;68933;49.726;9.226;2023-06-14T14:01:18;29.3;26
79467;SHT30;68933;49.726;9.226;2023-06-14T14:03:31;29.3;26
79467;SHT30;68933;49.726;9.226;2023-06-14T14:05:44;29.3;26
79467;SHT30;68933;49.726;9.226;2023-06-14T14:07:58;29.2;26
79467;SHT30;68933;49.726;9.226;2023-06-14T14:10:10;29.2;26
79467;SHT30;68933;49.726;9.226;2023-06-14T14:12:23;29.6;25
79467;SHT30;68933;49.726;9.226;2023-06-14T14:14:36;29.6;25
79467;SHT30;68933;49.726;9.226;2023-06-14T14:16:49;29.7;25
79467;SHT30;68933;49.726;9.226;2023-06-14T14:19:02;29.7;25
79467;SHT30;68933;49.726;9.226;2023-06-14T14:21:15;29.4;25
79467;SHT30;68933;49.726;9.226;2023-06-14T14:23:28;29.4;25
79467;SHT30;68933;49.726;9.226;2023-06-14T14:25:41;29;26
79467;SHT30;68933;49.726;9.226;2023-06-14T14:27:54;29;26
79467;SHT30;68933;49.726;9.226;2023-06-14T14:30:07;29;26
79467;SHT30;68933;49.726;9.226;2023-06-14T14:32:20;28.8;26
79467;SHT30;68933;49.726;9.226;2023-06-14T14:34:33;28.8;26
79467;SHT30;68933;49.726;9.226;2023-06-14T14:36:46;28.7;26
79467;SHT30;68933;49.726;9.226;2023-06-14T14:38:59;28.7;26
79467;SHT30;68933;49.726;9.226;2023-06-14T14:41:12;28.9;26
79467;SHT30;68933;49.726;9.226;2023-06-14T14:43:25;28.9;26
79467;SHT30;68933;49.726;9.226;2023-06-14T14:45:38;29.3;25
79467;SHT30;68933;49.726;9.226;2023-06-14T14:47:51;29.3;25
79467;SHT30;68933;49.726;9.226;2023-06-14T14:50:04;29.6;25
79467;SHT30;68933;49.726;9.226;2023-06-14T14:52:17;29.6;25
79467;SHT30;68933;49.726;9.226;2023-06-14T14:54:30;29.6;25
79467;SHT30;68933;49.726;9.226;2023-06-14T14:56:43;29.6;25
79467;SHT30;68933;49.726;9.226;2023-06-14T14:58:56;29.6;25